Extreme weather reports worldwide

High gusts

Station
 
Location
 
Name
 
Wind
Knots
Gust
Knots
Vis
SM
Temp/Dew
C
Baro
inHg
METAR
 
KMWN 54 64 60 6/5 KMWN 211752Z 22054G64KT 60SM BCFG BKN/// SCT/// SCT000 BKN040 BKN060 06/05 RMK VIS SW-SE 1 TPS LWR BKN055 BBLO SCT SW-SE 60003 10063 20048
EHSA NL Europlatform 38 51 6.21 16/13 29.53 EHSA 211825Z AUTO 21038G51KT 9999 ///////// 16/13 Q1000 W13/H35
RKS KRKS Rock Springs, US Southwest Wyoming Regional Airport 29 48 10 14/0 29.97 KRKS 211754Z AUTO 26029G48KT 10SM CLR 14/M01 A2997 RMK AO2 PK WND 25048/1751 SLP093 T01441006 10150 20050 57009
TRE EGPU Balemartine, GB Tiree Airport 33 46 2.17 10/9 29.32 EGPU 211820Z AUTO 02033G46KT 3500 -RA BKN008/// BKN017/// 10/09 Q0993
PAUT Akutan, US Akun Airport 31 46 5 6/3 29.95 PAUT 211835Z AUTO 08031G46KT 5SM BKN021 OVC030 07/04 A2995 RMK AO2 P0001 T00660037 PWINO

Station
 
Location
 
Name
 
Wind
Knots
Gust
Knots
Vis
SM
Temp/Dew
C
Baro
inHg
METAR
 
K0CO 35 44 10 4/-6 30.24 K0CO 211835Z AUTO 29035G44KT 10SM CLR 04/M06 A3024 RMK AO2 PWINO
DCM LFCK Castres/Mazamet, FR Castres-Mazamet Airport 31 42 6.21 17/15 29.88 LFCK 211830Z AUTO 13031G42KT CAVOK 17/15 Q1012 TEMPO BKN013
RWL KRWL Rawlins, US Rawlins Municipal Airport/Harvey Field 24 40 10 16/-2 29.93 KRWL 211753Z AUTO 24024G40KT 10SM -RA CLR 16/M02 A2993 RMK AO2 PK WND 26041/1741 RAE11B33 SLP064 P0000 60000 T01611022 10161 20078 58007
DUT PADU Unalaska, US Unalaska Airport 26 39 5 7/4 29.94 PADU 211805Z 09026G39KT 5SM RA BR OVC022 07/04 A2994 RMK AO2 PK WND 10039/1759 OBS PK WND 08052/1758 P0002
AMS EHAM Amsterdam, NL Amsterdam Airport Schiphol 27 39 6.21 17/13 29.50 EHAM 211825Z 22027G39KT 9999 BKN024 17/13 Q0999 NOSIG
AKB PAAK Atka, US Atka Airport 23 38 1.25 6/4 29.71 PAAK 211815Z AUTO 07023G38KT 1 1/4SM -RA BR BKN010 OVC015 06/04 A2971 RMK AO2 PK WND 06038/1807 CIG 008V014 P0000
KMYP 28 38 10 7/-12 30.42 KMYP 211835Z AUTO 26028G38KT 10SM CLR 07/M12 A3042 RMK AO2
DHR EHKD Den Helder, NL De Kooy Airport 27 38 2.3 15/13 29.44 EHKD 211839Z AUTO 22027G38KT 190V250 3700 DZRA FEW007 SCT016 BKN020 15/13 Q0997 GRN TEMPO 3000 SHRA FEW006 SCT016CB
IDA KIDA Idaho Falls, US Idaho Falls Regional Airport 27 37 10 12/2 29.91 KIDA 211753Z 22027G37KT 10SM BKN039 13/02 A2991 RMK AO2 PK WND 22038/1722 SLP110 T01280022 10128 20039 58003
KVC PAVC King Cove, US King Cove Airport 27 37 10 7/2 30.13 PAVC 211756Z AUTO 11027G37KT 10SM BKN029 OVC034 07/03 A3013 RMK AO2 PK WND 11037/1747 SLP204 T00720028 10072 20061 58036
EHDL Arnhem, NL Deelen Air Base 20 37 6.21 19/13 29.53 EHDL 211825Z AUTO 22020G37KT 160V270 9999 FEW038 SCT056 OVC061 19/13 Q1000 BLU
LEY EHLE Lelystad, NL Lelystad Airport 24 37 6.21 18/12 29.50 EHLE 211825Z AUTO 23024G37KT 190V260 9999 SCT034 BKN039 18/12 Q0999 NOSIG
LWR EHLW Leeuwarden, NL Leeuwarden Air Base 26 37 6.21 16/13 29.41 EHLW 211825Z AUTO 23026G37KT 9999 SCT034 BKN038 BKN045 16/13 Q0996 BLU
KDUB 28 37 10 11/-5 29.82 KDUB 211835Z AUTO 26028G37KT 10SM SCT070 11/M05 A2982 RMK AO2
GRQ EHGG Groningen, NL Eelde Airport 22 36 6.21 18/13 29.44 EHGG 211825Z AUTO 21022G36KT 180V240 9999 SCT035 SCT040 BKN044 18/13 Q0997 TEMPO 7000 -SHRA FEW020TCU
EHVK Uden, NL Volkel Air Base 22 36 6.21 19/12 29.56 EHVK 211825Z AUTO 22022G36KT 170V260 9999 FEW042 19/12 Q1001 BLU
EMM KEMM Kemmerer, US Kemmerer Municipal Airport 25 36 10 13/-1 29.98 KEMM 211835Z AUTO 27025G36KT 10SM SCT045 13/M01 A2998 RMK AO2
CDB PACD Cold Bay, US Cold Bay Airport 26 35 10 7/1 30.10 PACD 211753Z 09026G35KT 10SM FEW120 07/02 A3010 RMK AO2 PK WND 08035/1706 PRESFR SLP195 T00720017 10072 20050 56036 $
LUR PALU Cape Lisburne, US Cape Lisburne LRRS Airport 24 35 10 3/2 30.44 PALU 211755Z AUTO 16024G35KT 100V210 10SM BKN009 04/02 A3044 RMK AO2 PK WND 20043/1700 SLP309 T00370021 10051 20038 51007
BEB EGPL Balivanich, GB Benbecula Airport 25 35 6.21 8/6 29.47 EGPL 211820Z AUTO 02025G35KT 9999 -RA NCD 08/06 Q0998
PIH KPIH Pocatello, US Pocatello Regional Airport 23 33 10 13/2 29.97 KPIH 211753Z 24023G33KT 10SM FEW038 BKN048 13/02 A2997 RMK AO2 PK WND 25037/1740 SLP129 T01330022 10144 20094 51006
AUR LFLW Aurillac, FR Aurillac Airport 18 33 6.21 15/11 29.91 LFLW 211830Z AUTO 14018G33KT 110V170 9999 SCT027 15/11 Q1013
EVW KEVW Evanston, US Evanston-Uinta County Airport-Burns Field 24 32 10 15/-2 30.01 KEVW 211753Z AUTO 25024G32KT 10SM CLR 15/M02 A3001 RMK AO2 PK WND 25032/1744 SLP103 T01501022 10150 20033 58009 $
CWGB 27 32 9/5 CWGB 211800Z AUTO 29027G32KT 10/05 RMK AO1 PK WND 30032/1755 SLP201 T00960054 53016
IML KIML Imperial, US Imperial Municipal Airport 20 32 10 12/4 29.95 KIML 211814Z AUTO 16020G32KT 10SM FEW023 13/04 A2995 RMK AO2 PK WND 15032/1813 T01280044
NRN EDLV Weeze, DE Weeze Airport 17 32 6.21 19/13 29.59 EDLV 211820Z 22017G32KT 180V240 9999 SCT042 19/13 Q1002
PDT KPDT Pendleton, US Eastern Oregon Regional At Pendleton Airport 21 31 9 11/1 30.02 KPDT 211753Z 26021G31KT 9SM FEW041 BKN050 BKN060 12/02 A3002 RMK AO2 PK WND 27033/1713 SLP160 T01170017 10122 20072 52003
RXE KRXE Rexburg, US Rexburg Madison County Airport 20 31 10 12/1 29.88 KRXE 211753Z AUTO 23020G31KT 10SM CLR 12/02 A2988 RMK AO2 PK WND 23033/1658 SLP097 T01220017 10122 20056 58009
SNY KSNY Sidney, US Sidney Municipal-Lloyd W Carr Field 23 31 10 13/2 29.89 KSNY 211753Z AUTO 19023G31KT 10SM CLR 14/03 A2989 RMK AO2 PK WND 20034/1708 SLP109 T01390028 10139 20033 56018 $
KGTB Fort Drum, US Wheeler Sack Army Air Field 22 31 10 20/15 29.99 KGTB 211756Z AUTO 20022G31KT 10SM BKN043 OVC060 20/15 A2999 RMK AO2 PK WND 20031/51 SLP157 60022 T02020150 10202 20146 57019
CYUA 24 31 -9/-11 30.59 CYUA 211800Z AUTO 20024G31KT ////SM NCD M09/M11 A3059
GKE ETNG DE Geilenkirchen Air Base 13 30 6.21 20/12 29.62 ETNG 211750Z 22013G30KT CAVOK 20/12 Q1003
PSY SFAL Stanley, FK Port Stanley Airport 20 30 6.21 7/2 30.27 SFAL 211750Z 33020G30KT 9999 SCT030 07/02 Q1025
HLN KHLN Helena, US Helena Regional Airport 22 30 10 7/-3 29.83 KHLN 211753Z 29022G30KT 10SM CLR 08/M03 A2983 RMK AO2 PK WND 29030/1752 SLP125 60001 T00781033 10083 20017 58007
CWMZ 25 30 10/6 CWMZ 211800Z AUTO 27025G30KT 11/06 RMK AO1 PK WND 28030/1722 SLP182 T01060064 51033
YHU CYHU Montréal, CA Montréal / Saint-Hubert Airport 19 30 9 16/14 29.94 CYHU 211800Z AUTO 17019G30KT 9SM FEW040 BKN095 OVC120 16/14 A2994 RMK SLP142 DENSITY ALT 100FT
LDY EGAE Derry, GB City of Derry Airport 20 30 6.21 9/7 29.41 EGAE 211820Z 30020G30KT 9999 -RADZ FEW008 SCT014 BKN020 09/07 Q0996
K7BM 13 30 10 15/-16 30.17 K7BM 211835Z AUTO 28013G30KT 250V340 10SM CLR 15/M16 A3017 RMK AO2
ART KART Watertown, US Watertown International Airport 19 30 10 20/15 30.01 KART 211835Z AUTO 22019G30KT 10SM BKN025 OVC034 20/15 A3001 RMK AO2 PK WND 19030/1831 T02000150 $
KPTD Potsdam, US Potsdam Municipal-Damon field 19 30 10 21/15 29.97 KPTD 211835Z AUTO 22019G30KT 10SM BKN037 OVC050 21/15 A2997 RMK AO2
KSF EDVK Kassel, DE Kassel-Calden Airport 18 29 6.21 17/7 29.68 EDVK 211750Z 18018G29KT CAVOK 17/07 Q1005
YIK CYIK Ivujivik, CA Ivujivik Airport 23 29 7 1/-3 29.84 CYIK 211800Z 22023G29KT 7SM OVC025 01/M03 A2984 RMK SC8 SLP108
BRU EBBR Brussels, BE Brussels Airport 16 29 6.21 18/11 29.65 EBBR 211820Z 23016G29KT CAVOK 18/11 Q1004 BECMG FM1930 22015KT
MCD KMCD Mackinac Island, US Mackinac Island Airport 22 29 10 6/3 30.05 KMCD 211835Z AUTO 27022G29KT 10SM OVC016 07/03 A3005 RMK AO2 T00650031
SAA KSAA Saratoga, US Shively Field 19 29 10 16/-4 29.98 KSAA 211835Z AUTO 23019G29KT 10SM CLR 16/M04 A2998 RMK AO2